Time;durP1;ratioP1;P1;durP2;ratioP2;P2;SDS_P1;SDS_P2;PMS_P1;PMS_P2;Temp;Humidity;BMP_temperature;BMP_pressure;BME280_temperature;BME280_humidity;BME280_pressure;Samples;Min_cycle;Max_cycle;Signal;HPM_P1;HPM_P2
2022/10/08 00:01:00;;;;;;;3.92;2.17;;;;;;;19.48;62.75;101423.06;5032130;28;20025;-45
2022/10/08 00:03:29;;;;;;;3.75;1.92;;;;;;;19.39;62.91;101418.34;5034819;28;20385;-47
2022/10/08 00:05:59;;;;;;;6.03;2.33;;;;;;;19.58;62.60;101424.28;5030877;28;20389;-47
2022/10/08 00:08:26;;;;;;;2.75;2.00;;;;;;;19.48;62.18;101419.53;5027722;28;20446;-48
2022/10/08 00:10:59;;;;;;;3.88;2.08;;;;;;;19.34;62.36;101421.00;5044354;28;20033;-44
2022/10/08 00:13:27;;;;;;;9.05;2.50;;;;;;;19.54;62.48;101415.81;5054013;28;20021;-44
2022/10/08 00:15:55;;;;;;;3.78;2.13;;;;;;;19.43;63.08;101423.03;5054614;28;20442;-47
2022/10/08 00:18:21;;;;;;;2.65;1.98;;;;;;;19.41;62.89;101424.34;5055168;28;20029;-47
2022/10/08 00:20:48;;;;;;;2.97;2.00;;;;;;;19.14;63.71;101430.47;5040290;28;20038;-47
2022/10/08 00:23:15;;;;;;;4.18;2.35;;;;;;;18.82;64.68;101429.41;5034468;28;20029;-44
2022/10/08 00:25:43;;;;;;;3.45;2.20;;;;;;;19.03;64.00;101420.53;5033933;28;20022;-44
2022/10/08 00:28:10;;;;;;;4.60;1.92;;;;;;;19.11;64.12;101427.44;5034646;28;20394;-47
2022/10/08 00:30:40;;;;;;;10.27;2.03;;;;;;;18.99;64.48;101419.41;5034243;28;20045;-44
2022/10/08 00:33:09;;;;;;;4.68;1.60;;;;;;;18.85;64.81;101412.66;5034384;28;20049;-45
2022/10/08 00:35:39;;;;;;;3.45;1.95;;;;;;;18.72;64.99;101424.66;5034162;28;20021;-45
2022/10/08 00:38:06;;;;;;;3.53;2.03;;;;;;;18.80;64.66;101426.97;5034369;28;20029;-46
2022/10/08 00:40:43;;;;;;;3.17;1.88;;;;;;;18.75;64.73;101420.63;5033957;28;20041;-47
2022/10/08 00:43:16;;;;;;;3.55;2.38;;;;;;;18.73;65.07;101419.00;5024174;28;20029;-45
2022/10/08 00:45:46;;;;;;;4.45;2.30;;;;;;;18.52;65.70;101418.84;5014260;28;20022;-47
2022/10/08 00:48:23;;;;;;;2.95;1.98;;;;;;;18.46;66.37;101415.22;5030845;28;20116;-44
2022/10/08 00:50:49;;;;;;;6.78;1.92;;;;;;;18.37;66.94;101422.09;5020278;28;20029;-44
2022/10/08 00:53:15;;;;;;;3.95;2.65;;;;;;;18.31;66.97;101423.09;5024342;28;20479;-47
2022/10/08 00:55:41;;;;;;;5.32;2.60;;;;;;;18.02;68.10;101431.22;5013835;28;20244;-47
2022/10/08 00:58:19;;;;;;;2.90;2.13;;;;;;;18.08;67.99;101430.25;5020721;28;20029;-48
2022/10/08 01:00:46;;;;;;;3.05;1.70;;;;;;;17.71;68.91;101423.50;5014054;28;20030;-45
2022/10/08 01:03:13;;;;;;;4.18;2.00;;;;;;;17.66;69.07;101424.25;5014019;28;20421;-47
2022/10/08 01:05:48;;;;;;;4.20;2.17;;;;;;;17.54;69.23;101426.94;5013888;28;20030;-44
2022/10/08 01:08:44;;;;;;;5.82;2.58;;;;;;;17.48;69.44;101425.19;5013929;28;20050;-46
2022/10/08 01:11:10;;;;;;;3.78;2.17;;;;;;;17.45;69.92;101430.28;5013501;28;20497;-45
2022/10/08 01:13:48;;;;;;;5.47;2.20;;;;;;;17.25;70.39;101425.22;5013120;28;20053;-44
2022/10/08 01:16:31;;;;;;;3.63;2.05;;;;;;;17.29;70.29;101429.09;5014109;28;20032;-43
2022/10/08 01:19:21;;;;;;;3.92;2.25;;;;;;;17.05;71.39;101426.41;5013655;28;20037;-44
2022/10/08 01:22:26;;;;;;;4.82;2.50;;;;;;;17.03;71.20;101433.09;5028241;28;20084;-44
2022/10/08 01:25:32;;;;;;;4.97;2.55;;;;;;;16.91;71.83;101419.56;5028230;28;20449;-45
2022/10/08 01:28:23;;;;;;;3.85;2.70;;;;;;;16.87;72.01;101426.50;5021151;28;20030;-45
2022/10/08 01:30:58;;;;;;;4.82;2.42;;;;;;;16.87;72.10;101432.72;5033376;28;20086;-46
2022/10/08 01:33:57;;;;;;;4.07;2.35;;;;;;;16.47;73.57;101429.78;5048223;28;20025;-45
2022/10/08 01:36:26;;;;;;;5.63;2.08;;;;;;;16.44;73.50;101435.66;5015671;28;20513;-43
2022/10/08 01:39:00;;;;;;;3.88;2.40;;;;;;;16.25;74.16;101442.16;5015499;28;20112;-43
2022/10/08 01:41:29;;;;;;;4.95;2.22;;;;;;;16.36;74.06;101435.97;5021237;28;20034;-44
2022/10/08 01:44:11;;;;;;;4.38;2.40;;;;;;;16.26;74.47;101438.41;5013218;28;20282;-44
2022/10/08 01:46:42;;;;;;;5.00;2.53;;;;;;;16.19;74.90;101448.47;5032517;28;20017;-44
2022/10/08 01:49:24;;;;;;;4.07;2.45;;;;;;;16.25;74.89;101445.69;5033352;28;20052;-47
2022/10/08 01:51:57;;;;;;;7.47;4.30;;;;;;;16.27;74.95;101450.88;5032890;28;20100;-46
2022/10/08 01:54:27;;;;;;;3.33;2.20;;;;;;;15.99;76.33;101457.69;5020109;28;20037;-42
2022/10/08 01:56:56;;;;;;;4.70;2.75;;;;;;;15.83;77.32;101452.91;5025793;28;20265;-46
2022/10/08 01:59:45;;;;;;;3.50;2.47;;;;;;;15.70;77.92;101455.72;5032711;28;20028;-46
2022/10/08 02:02:21;;;;;;;3.58;2.00;;;;;;;15.86;76.99;101463.22;5029357;28;20410;-43
2022/10/08 02:04:50;;;;;;;3.80;2.17;;;;;;;15.72;77.62;101464.44;5012991;28;20494;-44
2022/10/08 02:07:19;;;;;;;6.07;2.95;;;;;;;15.73;76.92;101475.00;5012906;28;20041;-43
2022/10/08 02:09:52;;;;;;;5.20;2.88;;;;;;;15.38;78.79;101474.72;5013354;28;20049;-45
2022/10/08 02:12:21;;;;;;;4.50;3.20;;;;;;;15.32;79.42;101470.19;5013195;28;20093;-45
2022/10/08 02:14:52;;;;;;;3.88;2.72;;;;;;;15.18;79.82;101472.19;5029057;28;20041;-45
2022/10/08 02:17:46;;;;;;;4.78;3.78;;;;;;;15.05;80.57;101478.53;5032813;28;20021;-43
2022/10/08 02:20:35;;;;;;;4.93;3.60;;;;;;;15.02;81.00;101478.13;4990483;28;20034;-43
2022/10/08 02:23:37;;;;;;;4.32;3.22;;;;;;;14.88;81.35;101480.13;5012604;28;20494;-44
2022/10/08 02:26:11;;;;;;;4.60;3.30;;;;;;;14.83;81.91;101487.22;5011114;28;20037;-42
2022/10/08 02:28:42;;;;;;;5.72;3.47;;;;;;;14.89;81.16;101494.44;5015260;28;20018;-43
2022/10/08 02:31:39;;;;;;;6.93;3.38;;;;;;;14.68;82.15;101498.28;5035395;28;20037;-43
2022/10/08 02:34:21;;;;;;;6.88;3.13;;;;;;;14.79;82.34;101497.59;5024851;28;20034;-43
2022/10/08 02:36:55;;;;;;;4.45;3.50;;;;;;;14.83;81.60;101504.22;5025888;28;20033;-42
2022/10/08 02:39:26;;;;;;;5.97;2.95;;;;;;;14.89;81.18;101495.25;5028450;28;20026;-42
2022/10/08 02:41:57;;;;;;;4.65;3.30;;;;;;;14.76;81.98;101503.41;5011914;28;20036;-42
2022/10/08 02:44:31;;;;;;;5.80;3.60;;;;;;;14.75;82.14;101515.25;5012285;28;20033;-43
2022/10/08 02:47:03;;;;;;;4.93;3.13;;;;;;;14.63;82.91;101519.66;5021605;28;20044;-45
2022/10/08 02:49:35;;;;;;;3.70;3.13;;;;;;;14.61;83.22;101524.47;5015279;28;20060;-44
2022/10/08 02:52:04;;;;;;;5.63;3.40;;;;;;;14.48;83.70;101536.94;5023005;28;20061;-44
2022/10/08 02:54:37;;;;;;;4.43;3.35;;;;;;;14.69;82.91;101527.72;5027228;28;20045;-44
2022/10/08 02:57:12;;;;;;;4.13;3.25;;;;;;;14.76;82.49;101535.75;5012245;28;20052;-43
2022/10/08 02:59:39;;;;;;;4.43;3.42;;;;;;;14.67;83.18;101539.75;5049888;28;20029;-43
2022/10/08 03:02:05;;;;;;;3.55;3.08;;;;;;;14.62;83.39;101539.56;5051639;28;20033;-44
2022/10/08 03:04:38;;;;;;;5.07;3.50;;;;;;;14.62;83.83;101535.00;5044471;28;20033;-46
2022/10/08 03:07:04;;;;;;;3.15;2.60;;;;;;;14.67;83.35;101542.44;5030488;28;20025;-46
2022/10/08 03:09:38;;;;;;;4.03;2.97;;;;;;;14.65;83.20;101549.91;5031509;28;20055;-44
2022/10/08 03:12:06;;;;;;;4.65;3.00;;;;;;;14.43;83.77;101547.50;5031784;28;20068;-44
2022/10/08 03:14:38;;;;;;;4.47;3.00;;;;;;;14.23;84.54;101546.75;5031296;28;20033;-43
2022/10/08 03:17:13;;;;;;;4.18;2.63;;;;;;;14.33;84.23;101549.00;5031330;28;20025;-44
2022/10/08 03:19:39;;;;;;;4.97;2.95;;;;;;;14.14;85.02;101553.41;5031293;28;20080;-43
2022/10/08 03:22:07;;;;;;;4.45;2.88;;;;;;;14.19;85.31;101559.00;5031457;28;20068;-43
2022/10/08 03:24:34;;;;;;;3.50;2.40;;;;;;;14.19;85.51;101561.69;5044594;28;20025;-47
2022/10/08 03:27:00;;;;;;;3.58;2.60;;;;;;;14.04;85.87;101559.22;5044048;28;20096;-44
2022/10/08 03:29:26;;;;;;;4.43;2.47;;;;;;;14.13;85.83;101570.59;5031495;28;20022;-43
2022/10/08 03:31:53;;;;;;;3.58;2.55;;;;;;;14.13;86.12;101571.44;5031276;28;20521;-43
2022/10/08 03:34:19;;;;;;;4.38;3.17;;;;;;;14.22;85.96;101575.56;5022909;28;20026;-43
2022/10/08 03:36:45;;;;;;;5.63;2.90;;;;;;;14.02;86.64;101582.84;5014083;28;20281;-43
2022/10/08 03:39:12;;;;;;;4.78;2.72;;;;;;;14.05;86.72;101584.28;5015695;28;20527;-44
2022/10/08 03:41:38;;;;;;;2.95;2.50;;;;;;;14.02;86.67;101582.84;5019271;28;20041;-44
2022/10/08 03:44:09;;;;;;;5.90;2.72;;;;;;;14.09;86.61;101593.59;5018717;28;20048;-42
2022/10/08 03:46:35;;;;;;;5.63;3.00;;;;;;;14.08;86.51;101591.94;5018704;28;20037;-42
2022/10/08 03:49:02;;;;;;;4.28;2.50;;;;;;;14.18;86.29;101598.56;5024202;28;20033;-44
2022/10/08 03:51:28;;;;;;;4.75;2.95;;;;;;;14.18;86.22;101603.13;5029235;28;20037;-43
2022/10/08 03:53:54;;;;;;;4.40;2.88;;;;;;;14.20;85.89;101596.47;5028514;28;20427;-42
2022/10/08 03:56:25;;;;;;;3.45;3.05;;;;;;;14.19;85.86;101599.38;5034116;28;20040;-44
2022/10/08 03:58:56;;;;;;;5.43;3.38;;;;;;;14.05;86.46;101600.44;5032441;28;20034;-45
2022/10/08 04:01:24;;;;;;;3.53;2.92;;;;;;;14.12;86.51;101604.78;5034622;28;20073;-44
2022/10/08 04:03:50;;;;;;;4.47;3.65;;;;;;;13.97;86.95;101612.25;5028716;28;20111;-44
2022/10/08 04:06:17;;;;;;;5.47;4.30;;;;;;;13.98;86.66;101605.84;5028542;28;20025;-43
2022/10/08 04:08:43;;;;;;;6.80;3.35;;;;;;;13.94;86.73;101613.53;5035363;28;20033;-43
2022/10/08 04:11:12;;;;;;;4.82;4.20;;;;;;;14.08;86.74;101619.69;5034929;28;20030;-45
2022/10/08 04:13:39;;;;;;;3.70;3.30;;;;;;;14.14;86.03;101618.84;5032513;28;20026;-42
2022/10/08 04:16:11;;;;;;;7.22;3.00;;;;;;;13.96;86.82;101619.50;5033923;28;20030;-43
2022/10/08 04:18:37;;;;;;;4.15;3.20;;;;;;;13.84;87.30;101620.38;5032901;28;20033;-43
2022/10/08 04:21:07;;;;;;;4.70;3.63;;;;;;;14.05;86.55;101624.66;5032545;28;20497;-44
2022/10/08 04:23:36;;;;;;;4.05;3.47;;;;;;;13.98;87.17;101624.69;5034409;28;20117;-43
2022/10/08 04:26:03;;;;;;;5.68;4.40;;;;;;;13.92;87.23;101626.34;5035054;28;20025;-44
2022/10/08 04:28:30;;;;;;;5.38;3.45;;;;;;;14.05;86.75;101617.44;5033487;28;20394;-44
2022/10/08 04:31:00;;;;;;;3.72;2.75;;;;;;;14.09;86.23;101625.91;5031996;28;20057;-44
2022/10/08 04:33:28;;;;;;;4.28;3.10;;;;;;;13.97;86.25;101618.47;5032509;28;20075;-44
2022/10/08 04:35:55;;;;;;;4.20;3.38;;;;;;;13.84;87.19;101620.38;5030293;28;20021;-42
2022/10/08 04:38:22;;;;;;;7.63;3.20;;;;;;;14.02;86.68;101625.91;5034441;28;20053;-44
2022/10/08 04:40:48;;;;;;;4.43;3.30;;;;;;;14.02;86.42;101622.41;5034415;28;20029;-42
2022/10/08 04:43:14;;;;;;;5.43;3.75;;;;;;;14.03;86.57;101632.94;5033099;28;20034;-42
2022/10/08 04:45:44;;;;;;;4.80;3.38;;;;;;;14.11;86.25;101623.84;5028740;28;20614;-43
2022/10/08 04:48:14;;;;;;;5.43;4.00;;;;;;;14.05;86.36;101624.66;5026340;28;20052;-43
2022/10/08 04:50:40;;;;;;;5.90;3.75;;;;;;;14.10;86.02;101627.56;5034294;28;20461;-43
2022/10/08 04:53:06;;;;;;;4.65;3.50;;;;;;;14.15;85.97;101625.06;5032823;28;20045;-43
2022/10/08 04:55:33;;;;;;;4.95;3.92;;;;;;;14.15;85.91;101627.75;5033451;28;20021;-44
2022/10/08 04:58:00;;;;;;;4.50;4.05;;;;;;;14.08;86.54;101627.78;5033119;28;20394;-43
2022/10/08 05:00:26;;;;;;;6.68;4.90;;;;;;;14.12;86.41;101633.56;5031727;28;20513;-43
2022/10/08 05:02:52;;;;;;;6.35;4.80;;;;;;;14.13;86.34;101627.97;5031903;28;20064;-43
2022/10/08 05:05:19;;;;;;;6.72;4.57;;;;;;;14.15;86.67;101622.38;5031874;28;20025;-43
2022/10/08 05:07:45;;;;;;;9.07;5.38;;;;;;;14.27;85.83;101621.53;5033449;28;20021;-43
2022/10/08 05:10:11;;;;;;;7.22;5.60;;;;;;;14.13;86.43;101621.75;5033955;28;20056;-42
2022/10/08 05:12:37;;;;;;;6.93;5.03;;;;;;;14.28;85.41;101630.44;5032595;28;20017;-44
2022/10/08 05:15:06;;;;;;;5.55;4.95;;;;;;;14.26;85.61;101625.25;5032357;28;20095;-43
2022/10/08 05:17:33;;;;;;;6.97;5.38;;;;;;;14.19;86.10;101626.31;5032381;28;20048;-43
2022/10/08 05:19:59;;;;;;;8.82;5.68;;;;;;;14.31;85.92;101619.22;5031521;28;20481;-43
2022/10/08 05:22:25;;;;;;;7.78;5.85;;;;;;;14.30;85.90;101622.97;5032608;28;20025;-43
2022/10/08 05:24:51;;;;;;;8.07;6.22;;;;;;;14.33;85.36;101622.53;5032649;28;20059;-42
2022/10/08 05:27:17;;;;;;;9.13;6.57;;;;;;;14.20;85.85;101628.78;5032561;28;20017;-44
2022/10/08 05:29:44;;;;;;;7.28;5.60;;;;;;;14.07;87.10;101631.50;5031024;28;20124;-43
2022/10/08 05:32:10;;;;;;;7.35;5.22;;;;;;;14.06;87.50;101631.72;5013340;28;20100;-44
2022/10/08 05:34:36;;;;;;;5.70;4.78;;;;;;;13.95;87.99;101627.81;5028832;28;20029;-44
2022/10/08 05:37:02;;;;;;;6.18;5.22;;;;;;;13.82;89.18;101642.06;5031290;28;20038;-43
2022/10/08 05:39:29;;;;;;;5.70;4.88;;;;;;;13.84;89.06;101634.63;5026620;28;20026;-42
2022/10/08 05:41:55;;;;;;;6.57;4.65;;;;;;;13.95;88.70;101638.56;5034824;28;20053;-42
2022/10/08 05:44:21;;;;;;;7.22;4.40;;;;;;;13.83;88.81;101629.47;5031660;28;20497;-43
2022/10/08 05:46:47;;;;;;;4.22;3.83;;;;;;;13.97;88.00;101640.00;5031649;28;20064;-44
2022/10/08 05:49:21;;;;;;;4.93;3.05;;;;;;;14.05;87.54;101640.81;5031012;28;20037;-42
2022/10/08 05:51:48;;;;;;;3.17;2.65;;;;;;;14.13;86.76;101644.13;5028587;28;20038;-42
2022/10/08 05:54:16;;;;;;;3.15;2.25;;;;;;;13.99;87.21;101637.94;5037429;28;20040;-42
2022/10/08 05:56:43;;;;;;;3.33;2.72;;;;;;;13.98;87.50;101638.97;5036152;28;20087;-44
2022/10/08 05:59:18;;;;;;;4.43;2.53;;;;;;;13.87;87.89;101628.81;5031476;28;20033;-42
2022/10/08 06:01:45;;;;;;;4.60;2.78;;;;;;;13.95;87.94;101633.19;5031621;28;20079;-44
2022/10/08 06:04:12;;;;;;;3.08;2.70;;;;;;;14.06;87.26;101642.50;5024503;28;20371;-42
2022/10/08 06:06:40;;;;;;;3.35;2.67;;;;;;;14.11;86.82;101645.38;5032257;28;20112;-44
2022/10/08 06:09:09;;;;;;;3.35;2.47;;;;;;;14.20;86.49;101639.53;5032039;28;20025;-43
2022/10/08 06:11:37;;;;;;;3.60;3.17;;;;;;;14.20;86.29;101641.41;5031642;28;20037;-43
2022/10/08 06:14:05;;;;;;;3.63;2.47;;;;;;;14.08;86.97;101635.84;5031257;28;20604;-43
2022/10/08 06:16:33;;;;;;;2.67;2.47;;;;;;;14.33;85.56;101636.00;5031513;28;20086;-43
2022/10/08 06:19:00;;;;;;;4.47;3.17;;;;;;;14.25;85.47;101625.44;5032230;28;20131;-43
2022/10/08 06:21:28;;;;;;;4.25;3.42;;;;;;;14.13;85.74;101640.59;5031954;28;20029;-45
2022/10/08 06:24:05;;;;;;;6.13;3.38;;;;;;;14.33;85.34;101627.94;5031357;28;20112;-42
2022/10/08 06:26:35;;;;;;;5.22;3.63;;;;;;;14.12;85.90;101633.56;5024997;28;20355;-44
2022/10/08 06:29:01;;;;;;;5.20;3.60;;;;;;;14.18;85.62;101630.84;5029737;28;20041;-42
2022/10/08 06:31:28;;;;;;;3.47;3.17;;;;;;;14.32;84.60;101633.50;5031080;28;20132;-43
2022/10/08 06:33:57;;;;;;;4.13;3.72;;;;;;;14.13;85.41;101636.03;5029631;28;20029;-44
2022/10/08 06:36:27;;;;;;;5.05;3.03;;;;;;;14.16;85.39;101637.50;5031124;28;20030;-42
2022/10/08 06:39:01;;;;;;;5.63;3.83;;;;;;;14.11;85.62;101634.63;5030891;28;20029;-42
2022/10/08 06:41:29;;;;;;;4.50;3.67;;;;;;;14.17;85.62;101634.59;5032116;28;20040;-42
2022/10/08 06:43:55;;;;;;;6.15;3.53;;;;;;;14.20;85.54;101636.84;5032066;28;20271;-42
2022/10/08 06:46:22;;;;;;;4.63;4.13;;;;;;;14.11;86.37;101640.00;5030084;28;20030;-46
2022/10/08 06:48:48;;;;;;;4.78;3.78;;;;;;;14.12;86.15;101638.97;5031123;28;20026;-44
2022/10/08 06:51:16;;;;;;;6.18;4.45;;;;;;;14.26;85.58;101645.94;5030566;28;20032;-43
2022/10/08 06:53:46;;;;;;;5.43;4.28;;;;;;;14.20;85.52;101641.41;5030922;28;20389;-43
2022/10/08 06:56:14;;;;;;;4.72;3.88;;;;;;;14.29;85.02;101639.34;5030891;28;20029;-42
2022/10/08 06:58:43;;;;;;;4.25;3.50;;;;;;;14.09;85.98;101648.25;5030828;28;20048;-42
2022/10/08 07:01:14;;;;;;;7.25;4.40;;;;;;;14.19;85.53;101650.53;5030710;28;20030;-45
2022/10/08 07:03:41;;;;;;;5.63;4.43;;;;;;;14.40;84.84;101652.97;5030522;28;20065;-42
2022/10/08 07:06:10;;;;;;;4.47;3.92;;;;;;;14.30;84.92;101643.69;5028866;28;20033;-42
2022/10/08 07:08:37;;;;;;;5.97;4.00;;;;;;;14.31;84.90;101642.63;5030836;28;20101;-43
2022/10/08 07:11:05;;;;;;;6.38;4.68;;;;;;;14.29;85.13;101648.25;5030765;28;20029;-42
2022/10/08 07:13:32;;;;;;;5.80;4.78;;;;;;;14.39;84.42;101642.41;5030793;28;20446;-42
2022/10/08 07:16:04;;;;;;;5.07;4.13;;;;;;;14.32;84.72;101641.59;5035952;28;20040;-42
2022/10/08 07:18:31;;;;;;;5.68;4.90;;;;;;;14.45;83.83;101647.78;5031436;28;20037;-41
2022/10/08 07:20:58;;;;;;;6.63;5.07;;;;;;;14.32;84.52;101645.09;5028406;28;20049;-42
2022/10/08 07:23:24;;;;;;;5.38;4.50;;;;;;;14.44;83.83;101645.31;5020552;28;20044;-42
2022/10/08 07:26:11;;;;;;;4.90;3.90;;;;;;;14.43;83.99;101655.22;5014805;28;20032;-45
2022/10/08 07:28:39;;;;;;;5.53;4.05;;;;;;;14.44;83.66;101651.53;5014054;28;20034;-46
2022/10/08 07:31:14;;;;;;;4.88;3.83;;;;;;;14.50;82.93;101655.28;5025410;28;20045;-42
2022/10/08 07:33:40;;;;;;;;;;;;;;;14.52;82.34;101654.00;5029014;28;20029;-43
2022/10/08 07:36:09;;;;;;;4.13;3.40;;;;;;;14.39;82.65;101661.28;5029608;28;19917;-44
2022/10/08 07:38:35;;;;;;;5.68;4.45;;;;;;;14.48;82.44;101660.84;5014602;28;20039;-43
2022/10/08 07:41:02;;;;;;;9.00;4.40;;;;;;;14.30;83.62;101660.66;5028540;28;20034;-42
2022/10/08 07:43:28;;;;;;;5.57;3.85;;;;;;;14.36;83.55;101657.13;5028840;28;20439;-42
2022/10/08 07:45:54;;;;;;;5.57;4.05;;;;;;;14.34;83.41;101656.50;5022213;28;20052;-42
2022/10/08 07:48:20;;;;;;;6.05;4.38;;;;;;;14.42;83.25;101661.66;5030155;28;20029;-42
2022/10/08 07:50:46;;;;;;;4.57;3.80;;;;;;;14.43;83.26;101654.41;5030093;28;20474;-42
2022/10/08 07:53:13;;;;;;;4.75;3.80;;;;;;;14.41;83.48;101653.81;5028919;28;20033;-43
2022/10/08 07:55:39;;;;;;;4.22;3.83;;;;;;;14.36;83.60;101656.28;5029920;28;20156;-42
2022/10/08 07:58:05;;;;;;;4.18;3.70;;;;;;;14.42;83.50;101658.13;5030122;28;20036;-43
2022/10/08 08:00:31;;;;;;;4.65;3.58;;;;;;;14.42;83.50;101663.53;5029280;28;20042;-44
2022/10/08 08:02:58;;;;;;;4.60;3.83;;;;;;;14.40;83.33;101665.63;5029660;28;20060;-42
2022/10/08 08:05:24;;;;;;;4.03;3.63;;;;;;;14.35;83.74;101654.66;5029627;28;20033;-43
2022/10/08 08:07:50;;;;;;;3.90;3.20;;;;;;;14.44;83.34;101656.91;5030044;28;20029;-43
2022/10/08 08:10:16;;;;;;;4.18;3.22;;;;;;;14.22;84.44;101655.50;5030213;28;20497;-42
2022/10/08 08:12:42;;;;;;;3.90;3.17;;;;;;;14.29;84.22;101647.41;5030110;28;20039;-42
2022/10/08 08:15:09;;;;;;;4.43;3.75;;;;;;;14.28;84.17;101657.34;5030335;28;20029;-45
2022/10/08 08:17:35;;;;;;;3.00;2.53;;;;;;;14.29;83.97;101650.09;5029783;28;20120;-41
2022/10/08 08:20:02;;;;;;;3.70;3.22;;;;;;;14.27;83.92;101650.31;5028480;28;20025;-42
2022/10/08 08:22:28;;;;;;;3.25;2.83;;;;;;;14.24;83.74;101650.72;5031207;28;20053;-45
2022/10/08 08:24:54;;;;;;;4.35;3.05;;;;;;;14.06;85.05;101645.19;5032818;28;20424;-43
2022/10/08 08:27:21;;;;;;;4.20;3.10;;;;;;;14.11;84.59;101648.06;5033290;28;20453;-44
2022/10/08 08:29:47;;;;;;;3.80;3.05;;;;;;;13.98;85.13;101630.88;5033534;28;20072;-40
2022/10/08 08:32:14;;;;;;;3.58;2.88;;;;;;;14.19;84.70;101639.75;5032919;28;20052;-42
2022/10/08 08:34:40;;;;;;;3.85;3.22;;;;;;;14.07;85.18;101644.13;5034519;28;20030;-42
2022/10/08 08:37:06;;;;;;;5.25;3.92;;;;;;;14.10;84.95;101643.72;5033093;28;20082;-43
2022/10/08 08:39:32;;;;;;;3.50;3.20;;;;;;;14.10;85.05;101639.19;5032543;28;20034;-44
2022/10/08 08:42:27;;;;;;;4.95;3.45;;;;;;;14.12;84.82;101636.25;5032749;28;20026;-42
2022/10/08 08:45:00;;;;;;;3.72;3.33;;;;;;;14.08;84.84;101638.53;5033499;28;20159;-41
2022/10/08 08:47:48;;;;;;;5.00;3.13;;;;;;;14.13;84.84;101635.22;5033148;28;20570;-44
2022/10/08 08:50:27;;;;;;;5.63;3.85;;;;;;;14.05;85.13;101640.81;5030725;28;20037;-42
2022/10/08 08:52:55;;;;;;;4.22;3.80;;;;;;;14.17;84.92;101639.16;5032589;28;20547;-43
2022/10/08 08:55:36;;;;;;;3.85;3.45;;;;;;;14.14;84.78;101643.09;5034074;28;20063;-42
2022/10/08 08:58:15;;;;;;;4.32;3.58;;;;;;;13.96;85.19;101641.03;5032171;28;20034;-42
2022/10/08 09:00:46;;;;;;;5.05;4.05;;;;;;;14.07;85.08;101644.13;5032239;28;20448;-44
2022/10/08 09:03:24;;;;;;;4.35;3.67;;;;;;;14.12;84.59;101644.34;5032397;28;20033;-44
2022/10/08 09:05:57;;;;;;;3.95;3.42;;;;;;;13.97;85.48;101637.31;5032524;28;20474;-42
2022/10/08 09:08:31;;;;;;;5.80;3.15;;;;;;;14.15;84.64;101638.53;5032963;28;20037;-42
2022/10/08 09:11:02;;;;;;;4.35;3.33;;;;;;;13.95;85.13;101639.38;5032551;28;20021;-43
2022/10/08 09:13:56;;;;;;;2.90;2.50;;;;;;;13.98;84.91;101644.34;5032566;28;20037;-42
2022/10/08 09:16:23;;;;;;;3.47;2.67;;;;;;;14.08;84.94;101635.03;5032695;28;20120;-43
2022/10/08 09:18:50;;;;;;;3.40;3.03;;;;;;;13.93;85.77;101638.75;5031965;28;20536;-42
2022/10/08 09:21:18;;;;;;;3.78;3.35;;;;;;;13.86;86.39;101631.72;5033615;28;20029;-43
2022/10/08 09:23:45;;;;;;;3.28;2.63;;;;;;;13.77;86.88;101639.22;5031669;28;20029;-42
2022/10/08 09:26:24;;;;;;;3.72;3.28;;;;;;;13.88;86.56;101643.97;5033859;28;20030;-41
2022/10/08 09:28:55;;;;;;;4.57;2.97;;;;;;;13.89;86.65;101648.31;5031438;28;20099;-42
2022/10/08 09:31:29;;;;;;;3.97;3.17;;;;;;;13.86;86.74;101648.69;5031368;28;20103;-44
2022/10/08 09:34:11;;;;;;;3.08;2.75;;;;;;;13.90;86.60;101649.13;5031378;28;20045;-42
2022/10/08 09:36:41;;;;;;;2.97;2.28;;;;;;;13.75;87.45;101652.03;5022526;28;20389;-43
2022/10/08 09:39:26;;;;;;;2.95;2.45;;;;;;;13.80;87.00;101649.53;5031950;28;20037;-43
2022/10/08 09:42:16;;;;;;;2.60;2.40;;;;;;;13.70;87.24;101644.56;5031809;28;20249;-42
2022/10/08 09:44:51;;;;;;;3.20;2.17;;;;;;;13.83;86.99;101646.44;5031546;28;20080;-45
2022/10/08 09:47:19;;;;;;;2.67;2.47;;;;;;;13.94;86.49;101648.50;5030943;28;20078;-43
2022/10/08 09:50:01;;;;;;;2.55;2.35;;;;;;;13.83;86.75;101646.44;5032818;28;20543;-42
2022/10/08 09:52:28;;;;;;;3.65;2.67;;;;;;;13.91;86.33;101646.22;5030962;28;20025;-42
2022/10/08 09:55:06;;;;;;;3.50;2.47;;;;;;;13.85;86.32;101652.44;5031917;28;20029;-44
2022/10/08 09:57:34;;;;;;;3.42;2.67;;;;;;;13.61;87.05;101655.75;5032006;28;20573;-43
2022/10/08 10:00:03;;;;;;;3.60;3.25;;;;;;;13.78;86.07;101648.09;5031008;28;20029;-43
2022/10/08 10:02:31;;;;;;;2.92;2.40;;;;;;;13.80;85.66;101633.41;5031284;28;20046;-45
2022/10/08 10:05:00;;;;;;;4.68;3.30;;;;;;;13.86;84.99;101643.31;5031713;28;20037;-44
2022/10/08 10:07:38;;;;;;;3.75;3.08;;;;;;;13.84;85.47;101645.41;5031558;28;20512;-42
2022/10/08 10:10:15;;;;;;;3.83;2.75;;;;;;;13.85;85.46;101641.66;5030693;28;20316;-43
2022/10/08 10:13:05;;;;;;;3.42;2.88;;;;;;;13.92;84.89;101631.72;5019363;28;20021;-43
2022/10/08 10:15:39;;;;;;;3.03;2.72;;;;;;;13.80;85.39;101638.78;5031885;28;20478;-42
2022/10/08 10:18:15;;;;;;;4.05;3.20;;;;;;;13.86;85.55;101632.56;5031246;28;20112;-42
2022/10/08 10:20:42;;;;;;;;;;;;;;;13.98;85.33;101632.75;5029589;28;20492;-42
2022/10/08 10:23:22;;;;;;;3.50;3.20;;;;;;;13.76;86.75;101625.94;5031191;28;19924;-42
2022/10/08 10:25:54;;;;;;;5.50;3.90;;;;;;;13.86;86.39;101629.88;5031748;28;20036;-42
2022/10/08 10:28:44;;;;;;;5.82;3.67;;;;;;;13.77;86.97;101625.75;5029565;28;20033;-43
2022/10/08 10:31:18;;;;;;;4.88;4.28;;;;;;;13.84;86.57;101629.25;5012406;28;20038;-45
2022/10/08 10:34:01;;;;;;;6.40;4.20;;;;;;;13.86;86.56;101624.50;5028309;28;20021;-41
2022/10/08 10:36:45;;;;;;;5.93;4.03;;;;;;;13.77;86.88;101620.38;5032330;28;20025;-44
2022/10/08 10:39:26;;;;;;;4.75;4.28;;;;;;;13.65;87.14;101627.38;5023591;28;20021;-45
2022/10/08 10:41:58;;;;;;;3.28;2.80;;;;;;;13.59;87.47;101622.84;5029988;28;20041;-42
2022/10/08 10:44:35;;;;;;;3.83;3.10;;;;;;;13.71;86.82;101615.78;5031326;28;20457;-43
2022/10/08 10:47:03;;;;;;;3.70;2.53;;;;;;;13.75;86.60;101619.72;5030179;28;20359;-41
2022/10/08 10:49:34;;;;;;;2.63;2.42;;;;;;;13.74;86.57;101624.28;5028695;28;20482;-42
2022/10/08 10:52:32;;;;;;;5.15;3.05;;;;;;;13.81;86.46;101618.06;5031016;28;20029;-43
2022/10/08 10:55:22;;;;;;;4.80;3.70;;;;;;;13.64;86.67;101623.88;5031643;28;20398;-44
2022/10/08 10:58:25;;;;;;;4.15;3.20;;;;;;;13.72;86.61;101620.16;5030802;28;20486;-44
2022/10/08 11:00:57;;;;;;;3.35;2.70;;;;;;;13.94;86.09;101626.97;5030801;28;20559;-47
2022/10/08 11:04:17;;;;;;;3.20;2.90;;;;;;;13.94;85.83;101635.06;5030127;28;20021;-43
2022/10/08 11:06:48;;;;;;;2.83;2.42;;;;;;;14.08;85.65;101626.94;4989342;28;20038;-43
2022/10/08 11:09:20;;;;;;;4.05;3.00;;;;;;;14.17;84.57;101631.09;4989890;28;20048;-45
2022/10/08 11:12:27;;;;;;;4.22;3.20;;;;;;;14.21;84.34;101635.84;5016080;28;20128;-43
2022/10/08 11:15:21;;;;;;;3.25;2.95;;;;;;;14.06;84.77;101634.41;5031211;28;20033;-45
2022/10/08 11:18:02;;;;;;;3.80;3.35;;;;;;;14.11;84.47;101640.81;5029461;28;20478;-43
2022/10/08 11:21:16;;;;;;;3.08;2.58;;;;;;;14.05;84.12;101635.44;5022865;28;20109;-43
2022/10/08 11:24:03;;;;;;;4.05;3.20;;;;;;;14.06;84.32;101639.81;5002120;28;20401;-44
2022/10/08 11:26:54;;;;;;;3.05;2.72;;;;;;;14.11;83.76;101640.81;5029780;28;20022;-44
2022/10/08 11:29:25;;;;;;;3.72;3.30;;;;;;;14.16;83.54;101642.91;5030529;28;20454;-43
2022/10/08 11:31:52;;;;;;;3.70;2.72;;;;;;;14.20;83.13;101647.63;5028838;28;20049;-44
2022/10/08 11:34:46;;;;;;;2.78;2.50;;;;;;;14.37;82.60;101647.16;5027892;28;20326;-43
2022/10/08 11:37:19;;;;;;;2.55;2.35;;;;;;;14.25;82.95;101647.00;5024472;28;20117;-44
2022/10/08 11:40:02;;;;;;;3.17;2.38;;;;;;;14.33;82.95;101645.97;5030649;28;20482;-43
2022/10/08 11:42:34;;;;;;;2.53;2.13;;;;;;;14.11;83.73;101643.50;5026847;28;20037;-47
2022/10/08 11:45:43;;;;;;;2.97;2.33;;;;;;;14.15;83.69;101638.53;5015541;28;20048;-43
2022/10/08 11:48:34;;;;;;;2.17;1.98;;;;;;;13.99;84.53;101637.94;5009299;28;20032;-43
2022/10/08 11:51:18;;;;;;;2.90;2.60;;;;;;;13.90;85.00;101646.44;5034990;28;20049;-43